« Back
NWS Peachtree City, Ga » Text Product » MCN Terminal Aerodrome Forecast


Printer-friendly Version
Current Version              Previous Versions:   1  2  3  4  5  6  7  8  9  

Terminal Aerodrome Forecast

272
FTUS42 KFFC 131737
TAFMCN
TAF
KMCN 131737Z 1318/1418 34012KT P6SM SKC
     FM140000 34004KT P6SM SKC
     FM141000 05004KT P6SM SCT150
     FM141200 10008KT P6SM BKN150=



USA.gov is the U.S. government's official web portal to all federal, state and local government web resources and services.